createdAt,value
2023-03-07T00:01:47.049Z,95438.94
2023-03-07T00:04:14.849Z,95435.28
2023-03-07T00:06:42.564Z,95422.84
2023-03-07T00:09:10.740Z,95435.22
2023-03-07T00:11:38.553Z,95444.38
2023-03-07T00:14:08.458Z,95435.56
2023-03-07T00:16:37.585Z,95438.78
2023-03-07T00:19:05.474Z,95423.22
2023-03-07T00:21:33.317Z,95431.38
2023-03-07T00:24:01.124Z,95428.53
2023-03-07T00:26:28.994Z,95436.75
2023-03-07T00:28:56.876Z,95430.28
2023-03-07T00:31:25.259Z,95435.91
2023-03-07T00:33:54.419Z,95431.25
2023-03-07T00:36:23.816Z,95433.91
2023-03-07T00:38:52.393Z,95440.41
2023-03-07T00:41:22.685Z,95442.44
2023-03-07T00:43:50.642Z,95441.59
2023-03-07T00:46:20.065Z,95428.84
2023-03-07T00:48:48.066Z,95429.84
2023-03-07T00:51:22.607Z,95429.19
2023-03-07T00:53:50.744Z,95424.94
2023-03-07T00:56:20.729Z,95420.59
2023-03-07T00:58:49.022Z,95422.13
2023-03-07T01:01:20.082Z,95414.44
2023-03-07T01:03:49.667Z,95413.66
2023-03-07T01:06:21.472Z,95415.38
2023-03-07T01:08:49.378Z,95410.66
2023-03-07T01:11:18.016Z,95410.75
2023-03-07T01:13:46.059Z,95411.75
2023-03-07T01:16:17.955Z,95409.72
2023-03-07T01:18:49.107Z,95414.16
2023-03-07T01:21:20.642Z,95415.53
2023-03-07T01:23:49.137Z,95413.91
2023-03-07T01:26:18.288Z,95405.59
2023-03-07T01:28:46.851Z,95416.13
2023-03-07T01:31:15.402Z,95424.63
2023-03-07T01:33:43.238Z,95415.66
2023-03-07T01:36:20.229Z,95412.53
2023-03-07T01:38:49.158Z,95423.06
2023-03-07T01:41:17.689Z,95414.41
2023-03-07T01:43:45.861Z,95417.72
2023-03-07T01:46:43.563Z,95411.16
2023-03-07T01:49:17.378Z,95418.09
2023-03-07T01:51:50.644Z,95421.66
2023-03-07T01:54:21.183Z,95413.53
2023-03-07T01:56:49.462Z,95408.47
2023-03-07T01:59:22.732Z,95407.44
2023-03-07T02:01:51.593Z,95387.13
2023-03-07T02:04:24.893Z,95396.28
2023-03-07T02:06:54.119Z,95391.81
2023-03-07T02:09:24.950Z,95388.94
2023-03-07T02:11:53.444Z,95387.72
2023-03-07T02:14:21.164Z,95382.84
2023-03-07T02:16:49.552Z,95385.47
2023-03-07T02:19:31.210Z,95377.28
2023-03-07T02:22:10.346Z,95375.06
2023-03-07T02:24:45.138Z,95385.00
2023-03-07T02:27:15.040Z,95376.28
2023-03-07T02:29:42.891Z,95390.00
2023-03-07T02:32:11.136Z,95398.13
2023-03-07T02:34:39.021Z,95392.84
2023-03-07T02:37:09.991Z,95380.09
2023-03-07T02:39:40.383Z,95389.84
2023-03-07T02:42:11.267Z,95392.59
2023-03-07T02:44:40.649Z,95396.09
2023-03-07T02:47:09.945Z,95394.25
2023-03-07T02:49:37.697Z,95391.47
2023-03-07T02:52:06.345Z,95379.63
2023-03-07T02:54:34.149Z,95377.63
2023-03-07T02:57:02.212Z,95383.66
2023-03-07T02:59:29.975Z,95376.78
2023-03-07T03:01:59.354Z,95366.06
2023-03-07T03:04:27.497Z,95365.19
2023-03-07T03:06:55.265Z,95369.84
2023-03-07T03:09:23.609Z,95366.34
2023-03-07T03:11:51.775Z,95368.31
2023-03-07T03:14:19.564Z,95370.38
2023-03-07T03:16:47.504Z,95363.50
2023-03-07T03:19:16.732Z,95368.50
2023-03-07T03:21:45.197Z,95358.22
2023-03-07T03:24:13.108Z,95360.16
2023-03-07T03:26:40.865Z,95354.88
2023-03-07T03:29:09.851Z,95354.41
2023-03-07T03:31:37.678Z,95346.97
2023-03-07T03:34:05.895Z,95347.19
2023-03-07T03:36:35.069Z,95351.53
2023-03-07T03:39:03.826Z,95350.44
2023-03-07T03:41:31.951Z,95348.06
2023-03-07T03:43:59.649Z,95344.34
2023-03-07T03:46:27.598Z,95340.00
2023-03-07T03:48:56.203Z,95337.66
2023-03-07T03:51:25.256Z,95337.25
2023-03-07T03:53:55.020Z,95334.44
2023-03-07T03:56:24.544Z,95322.94
2023-03-07T03:58:54.132Z,95336.75
2023-03-07T04:01:24.144Z,95333.66
2023-03-07T04:03:53.806Z,95326.97
2023-03-07T04:06:24.123Z,95324.50
2023-03-07T04:08:53.614Z,95323.09
2023-03-07T04:11:24.369Z,95328.13
2023-03-07T04:13:52.720Z,95317.97
2023-03-07T04:16:22.564Z,95320.41
2023-03-07T04:18:51.230Z,95308.47
2023-03-07T04:21:19.646Z,95314.63
2023-03-07T04:23:49.848Z,95304.69
2023-03-07T04:26:18.173Z,95306.81
2023-03-07T04:28:49.595Z,95308.38
2023-03-07T04:31:19.929Z,95287.59
2023-03-07T04:33:48.724Z,95295.06
2023-03-07T04:36:17.466Z,95291.84
2023-03-07T04:38:46.064Z,95285.31
2023-03-07T04:41:15.508Z,95293.28
2023-03-07T04:43:43.897Z,95299.84
2023-03-07T04:46:14.715Z,95289.03
2023-03-07T04:48:43.578Z,95292.59
2023-03-07T04:51:11.396Z,95285.66
2023-03-07T04:53:39.172Z,95283.97
2023-03-07T04:56:09.240Z,95272.22
2023-03-07T04:58:37.667Z,95269.47
2023-03-07T05:01:06.743Z,95268.25
2023-03-07T05:03:37.005Z,95261.13
2023-03-07T05:06:06.574Z,95269.03
2023-03-07T05:08:35.269Z,95272.75
2023-03-07T05:11:03.751Z,95266.22
2023-03-07T05:13:31.595Z,95262.72
2023-03-07T05:16:00.251Z,95269.34
2023-03-07T05:18:28.886Z,95260.53
2023-03-07T05:20:58.479Z,95254.97
2023-03-07T05:23:26.399Z,95263.41
2023-03-07T05:25:54.162Z,95241.56
2023-03-07T05:28:21.979Z,95255.50
2023-03-07T05:30:50.433Z,95263.00
2023-03-07T05:33:18.180Z,95258.66
2023-03-07T05:35:46.873Z,95257.06
2023-03-07T05:38:16.597Z,95255.63
2023-03-07T05:40:44.558Z,95254.38
2023-03-07T05:43:12.472Z,95253.09
2023-03-07T05:45:40.250Z,95245.31
2023-03-07T05:48:08.511Z,95242.91
2023-03-07T05:50:38.035Z,95243.34
2023-03-07T05:53:06.780Z,95235.09
2023-03-07T05:55:36.018Z,95240.00
2023-03-07T05:58:03.872Z,95238.75
2023-03-07T06:00:31.886Z,95239.19
2023-03-07T06:03:00.188Z,95234.84
2023-03-07T06:05:28.407Z,95241.00
2023-03-07T06:07:56.197Z,95238.94
2023-03-07T06:10:24.288Z,95245.41
2023-03-07T06:12:54.408Z,95246.25
2023-03-07T06:15:24.758Z,95237.84
2023-03-07T06:17:53.573Z,95238.91
2023-03-07T06:20:21.826Z,95246.50
2023-03-07T06:22:49.581Z,95232.03
2023-03-07T06:25:17.549Z,95230.59
2023-03-07T06:27:45.534Z,95235.00
2023-03-07T06:30:15.397Z,95225.47
2023-03-07T06:32:43.248Z,95220.47
2023-03-07T06:35:11.366Z,95208.91
2023-03-07T06:37:39.117Z,95215.31
2023-03-07T06:40:09.533Z,95217.75
2023-03-07T06:42:37.779Z,95215.56
2023-03-07T06:45:06.937Z,95223.66
2023-03-07T06:47:36.040Z,95228.13
2023-03-07T06:50:04.322Z,95227.31
2023-03-07T06:52:32.137Z,95227.84
2023-03-07T06:55:00.633Z,95230.84
2023-03-07T06:57:29.466Z,95211.94
2023-03-07T06:59:57.327Z,95228.56
2023-03-07T07:02:25.318Z,95220.16
2023-03-07T07:04:55.258Z,95224.81
2023-03-07T07:07:23.080Z,95228.88
2023-03-07T07:09:50.865Z,95231.50
2023-03-07T07:12:19.250Z,95233.41
2023-03-07T07:14:47.313Z,95232.75
2023-03-07T07:17:15.148Z,95222.88
2023-03-07T07:19:42.904Z,95232.06
2023-03-07T07:22:12.162Z,95225.78
2023-03-07T07:24:40.009Z,95219.66
2023-03-07T07:27:07.971Z,95228.56
2023-03-07T07:29:36.111Z,95223.78
2023-03-07T07:32:04.138Z,95219.84
2023-03-07T07:34:32.078Z,95220.09
2023-03-07T07:37:00.508Z,95203.03
2023-03-07T07:39:29.756Z,95213.06
2023-03-07T07:41:57.533Z,95220.09
2023-03-07T07:44:25.844Z,95212.38
2023-03-07T07:46:53.629Z,95209.88
2023-03-07T07:49:21.405Z,95204.09
2023-03-07T07:51:49.579Z,95214.00
2023-03-07T07:54:17.365Z,95213.53
2023-03-07T07:56:46.669Z,95207.78
2023-03-07T07:59:15.137Z,95213.41
2023-03-07T08:01:43.820Z,95210.44
2023-03-07T08:04:11.589Z,95209.03
2023-03-07T08:06:39.910Z,95204.91
2023-03-07T08:09:07.780Z,95198.34
2023-03-07T08:11:35.869Z,95204.19
2023-03-07T08:14:04.987Z,95204.78
2023-03-07T08:16:32.770Z,95205.25
2023-03-07T08:19:01.670Z,95198.88
2023-03-07T08:21:30.112Z,95198.75
2023-03-07T08:23:58.322Z,95199.03
2023-03-07T08:26:26.732Z,95196.91
2023-03-07T08:28:54.800Z,95202.34
2023-03-07T08:31:25.509Z,95200.47
2023-03-07T08:33:53.828Z,95190.03
2023-03-07T08:36:22.475Z,95199.91
2023-03-07T08:38:52.155Z,95193.53
2023-03-07T08:41:21.327Z,95200.97
2023-03-07T08:43:49.600Z,95204.34
2023-03-07T08:46:18.211Z,95200.88
2023-03-07T08:48:47.606Z,95205.75
2023-03-07T08:51:17.014Z,95196.06
2023-03-07T08:53:46.165Z,95174.03
2023-03-07T08:56:15.577Z,95189.22
2023-03-07T08:58:43.472Z,95184.41
2023-03-07T09:01:12.912Z,95176.84
2023-03-07T09:03:40.704Z,95192.47
2023-03-07T09:06:15.860Z,95176.69
2023-03-07T09:08:43.757Z,95171.59
2023-03-07T09:11:11.536Z,95172.22
2023-03-07T09:13:50.954Z,95156.13
2023-03-07T09:16:19.852Z,95165.31
2023-03-07T09:18:47.724Z,95158.13
2023-03-07T09:21:16.904Z,95154.31
2023-03-07T09:23:45.067Z,95150.66
2023-03-07T09:26:13.512Z,95149.47
2023-03-07T09:28:41.361Z,95155.03
2023-03-07T09:31:10.171Z,95152.97
2023-03-07T09:33:38.199Z,95149.78
2023-03-07T09:36:06.654Z,95155.84
2023-03-07T09:38:36.095Z,95138.69
2023-03-07T09:41:10.674Z,95132.63
2023-03-07T09:43:48.374Z,95136.97
2023-03-07T09:46:28.615Z,95126.13
2023-03-07T09:49:17.623Z,95128.31
2023-03-07T09:51:47.681Z,95119.84
2023-03-07T09:54:19.464Z,95121.66
2023-03-07T09:56:50.531Z,95109.19
2023-03-07T09:59:23.967Z,95102.88
2023-03-07T10:01:56.210Z,95092.47
2023-03-07T10:04:29.082Z,95109.03
2023-03-07T10:06:59.469Z,95094.28
2023-03-07T10:09:29.224Z,95092.72
2023-03-07T10:12:19.112Z,95088.41
2023-03-07T10:14:59.259Z,95085.31
2023-03-07T10:17:43.264Z,95075.91
2023-03-07T10:20:22.652Z,95075.59
2023-03-07T10:22:57.614Z,95068.81
2023-03-07T10:25:29.917Z,95060.53
2023-03-07T10:28:03.090Z,95051.56
2023-03-07T10:30:33.031Z,95044.59
2023-03-07T10:33:01.826Z,95043.50
2023-03-07T10:35:41.129Z,95040.63
2023-03-07T10:38:20.982Z,95043.66
2023-03-07T10:40:55.307Z,95033.91
2023-03-07T10:43:26.133Z,95023.78
2023-03-07T10:45:59.887Z,95023.00
2023-03-07T10:48:29.391Z,95027.78
2023-03-07T10:51:06.674Z,95028.88
2023-03-07T10:53:38.055Z,95024.56
2023-03-07T10:56:16.234Z,95016.47
2023-03-07T10:59:02.712Z,95007.69
2023-03-07T11:01:31.418Z,95018.59
2023-03-07T11:04:01.923Z,95020.72
2023-03-07T11:06:40.562Z,95010.13
2023-03-07T11:09:29.849Z,95010.53
2023-03-07T11:12:01.352Z,94999.53
2023-03-07T11:14:30.803Z,94985.88
2023-03-07T11:17:00.208Z,94987.41
2023-03-07T11:19:33.329Z,94990.13
2023-03-07T11:22:03.669Z,94982.69
2023-03-07T11:24:34.719Z,94991.41
2023-03-07T11:27:04.020Z,94976.69
2023-03-07T11:29:33.672Z,94983.00
2023-03-07T11:32:11.518Z,94980.41
2023-03-07T11:34:44.039Z,94982.09
2023-03-07T11:37:35.848Z,94979.38
2023-03-07T11:40:22.988Z,94967.56
2023-03-07T11:43:02.953Z,94978.16
2023-03-07T11:45:38.554Z,94966.16
2023-03-07T11:48:15.132Z,94975.91
2023-03-07T11:50:50.141Z,94967.22
2023-03-07T11:53:42.955Z,94955.56
2023-03-07T11:56:35.016Z,94946.06
2023-03-07T11:59:37.854Z,94941.91
2023-03-07T12:02:27.089Z,94932.22
2023-03-07T12:05:12.397Z,94943.66
2023-03-07T12:08:04.378Z,94933.72
2023-03-07T12:10:45.772Z,94931.78
2023-03-07T12:13:26.948Z,94929.44
2023-03-07T12:16:06.304Z,94916.78
2023-03-07T12:18:54.315Z,94921.41
2023-03-07T12:21:37.887Z,94912.47
2023-03-07T12:24:14.435Z,94908.06
2023-03-07T12:26:53.211Z,94898.66
2023-03-07T12:29:32.642Z,94901.50
2023-03-07T12:32:06.086Z,94903.69
2023-03-07T12:34:41.981Z,94897.59
2023-03-07T12:37:14.189Z,94889.50
2023-03-07T12:39:50.600Z,94891.59
2023-03-07T12:42:31.416Z,94876.81
2023-03-07T12:45:01.890Z,94893.78
2023-03-07T12:47:36.004Z,94894.09
2023-03-07T12:50:13.894Z,94886.34
2023-03-07T12:52:46.988Z,94878.72
2023-03-07T12:55:27.273Z,94881.13
2023-03-07T12:58:04.145Z,94878.94
2023-03-07T13:00:36.571Z,94888.47
2023-03-07T13:03:06.740Z,94882.97
2023-03-07T13:05:38.416Z,94876.69
2023-03-07T13:08:08.816Z,94880.88
2023-03-07T13:10:37.607Z,94866.09
2023-03-07T13:13:46.085Z,94859.69
2023-03-07T13:16:32.534Z,94839.50
2023-03-07T13:19:33.484Z,94812.22
2023-03-07T13:22:03.311Z,94845.94
2023-03-07T13:24:35.852Z,94846.44
2023-03-07T13:27:04.233Z,94847.25
2023-03-07T13:30:03.985Z,94839.25
2023-03-07T13:32:59.684Z,94837.09
2023-03-07T13:35:57.027Z,94841.34
2023-03-07T13:38:44.097Z,94838.84
2023-03-07T13:41:13.444Z,94844.00
2023-03-07T13:43:59.775Z,94855.88
2023-03-07T13:46:55.134Z,94868.31
2023-03-07T13:49:52.748Z,94859.78
2023-03-07T13:52:27.462Z,94871.56
2023-03-07T13:54:58.045Z,94866.19
2023-03-07T13:57:30.973Z,94864.63
2023-03-07T13:59:58.777Z,94871.53
2023-03-07T14:02:28.062Z,94875.25
2023-03-07T14:04:58.475Z,94871.50
2023-03-07T14:07:28.216Z,94864.59
2023-03-07T14:10:05.430Z,94859.22
2023-03-07T14:12:56.780Z,94849.06
2023-03-07T14:15:30.668Z,94865.09
2023-03-07T14:18:16.687Z,94864.50
2023-03-07T14:20:56.249Z,94869.31
2023-03-07T14:23:50.547Z,94862.38
2023-03-07T14:26:22.214Z,94869.56
2023-03-07T14:28:52.221Z,94866.09
2023-03-07T14:31:26.350Z,94873.63
2023-03-07T14:33:54.982Z,94877.53
2023-03-07T14:36:25.098Z,94874.56
2023-03-07T14:38:56.788Z,94875.09
2023-03-07T14:41:47.424Z,94880.13
2023-03-07T14:44:36.100Z,94887.78
2023-03-07T14:47:20.475Z,94890.41
2023-03-07T14:49:57.708Z,94887.88
2023-03-07T14:52:31.246Z,94901.69
2023-03-07T14:55:02.629Z,94901.69
2023-03-07T14:57:35.132Z,94894.13
2023-03-07T15:00:14.809Z,94896.25
2023-03-07T15:02:50.312Z,94907.66
2023-03-07T15:05:19.822Z,94909.94
2023-03-07T15:07:48.180Z,94910.50
2023-03-07T15:10:17.787Z,94907.41
2023-03-07T15:12:52.785Z,94913.81
2023-03-07T15:15:31.525Z,94899.38
2023-03-07T15:18:04.403Z,94915.44
2023-03-07T15:20:33.139Z,94897.69
2023-03-07T15:23:05.167Z,94914.81
2023-03-07T15:25:33.620Z,94907.97
2023-03-07T15:28:05.413Z,94909.88
2023-03-07T15:30:35.236Z,94925.88
2023-03-07T15:33:13.328Z,94848.63
2023-03-07T15:35:41.377Z,94911.63
2023-03-07T15:38:16.208Z,94910.94
2023-03-07T15:40:44.221Z,94907.19
2023-03-07T15:43:26.363Z,94908.38
2023-03-07T15:46:06.218Z,94915.34
2023-03-07T15:48:38.789Z,94902.56
2023-03-07T15:51:12.790Z,94912.72
2023-03-07T15:53:42.737Z,94912.50
2023-03-07T15:56:25.039Z,94915.81
2023-03-07T15:58:55.775Z,94921.78
2023-03-07T16:01:26.194Z,94922.66
2023-03-07T16:03:56.458Z,94928.41
2023-03-07T16:06:39.981Z,94933.41
2023-03-07T16:09:11.507Z,94934.13
2023-03-07T16:11:40.036Z,94929.69
2023-03-07T16:14:21.547Z,94935.44
2023-03-07T16:16:50.153Z,94938.81
2023-03-07T16:19:17.925Z,94946.13
2023-03-07T16:21:45.761Z,94941.47
2023-03-07T16:24:13.659Z,94942.75
2023-03-07T16:26:43.821Z,94931.69
2023-03-07T16:29:16.775Z,94960.97
2023-03-07T16:31:45.292Z,94962.97
2023-03-07T16:34:16.850Z,94970.84
2023-03-07T16:36:44.691Z,94975.19
2023-03-07T16:39:13.558Z,94977.25
2023-03-07T16:41:45.475Z,94982.28
2023-03-07T16:44:18.529Z,94988.13
2023-03-07T16:46:52.594Z,94972.59
2023-03-07T16:49:21.972Z,94980.34
2023-03-07T16:52:04.503Z,94985.88
2023-03-07T16:54:33.771Z,94997.28
2023-03-07T16:57:03.770Z,94994.31
2023-03-07T16:59:35.735Z,95017.81
2023-03-07T17:02:12.704Z,95020.19
2023-03-07T17:04:41.907Z,95020.88
2023-03-07T17:07:17.509Z,95019.63
2023-03-07T17:09:45.783Z,95030.34
2023-03-07T17:12:13.733Z,95032.06
2023-03-07T17:14:43.376Z,95043.81
2023-03-07T17:17:18.719Z,95033.84
2023-03-07T17:19:46.496Z,95055.72
2023-03-07T17:22:14.302Z,95050.81
2023-03-07T17:24:42.124Z,95048.31
2023-03-07T17:27:10.103Z,95055.63
2023-03-07T17:29:42.156Z,95049.56
2023-03-07T17:32:11.463Z,95060.72
2023-03-07T17:34:39.734Z,95067.88
2023-03-07T17:37:08.677Z,95074.41
2023-03-07T17:39:36.549Z,95073.94
2023-03-07T17:42:04.748Z,95088.31
2023-03-07T17:44:33.132Z,95081.66
2023-03-07T17:47:01.055Z,95089.22
2023-03-07T17:49:35.439Z,95086.25
2023-03-07T17:52:03.596Z,95076.16
2023-03-07T17:54:31.884Z,95085.59
2023-03-07T17:56:59.996Z,95095.28
2023-03-07T17:59:28.218Z,95119.00
2023-03-07T18:01:56.086Z,95110.50
2023-03-07T18:04:23.876Z,95115.69
2023-03-07T18:06:53.005Z,95118.78
2023-03-07T18:09:23.311Z,95119.00
2023-03-07T18:11:51.210Z,95129.50
2023-03-07T18:14:19.644Z,95143.22
2023-03-07T18:16:47.567Z,95153.91
2023-03-07T18:19:25.714Z,95159.22
2023-03-07T18:21:56.670Z,95156.91
2023-03-07T18:24:27.181Z,95150.22
2023-03-07T18:26:55.774Z,95149.91
2023-03-07T18:29:24.970Z,95153.47
2023-03-07T18:31:53.554Z,95153.81
2023-03-07T18:34:21.458Z,95156.63
2023-03-07T18:36:51.598Z,95160.50
2023-03-07T18:39:21.410Z,95151.22
2023-03-07T18:41:51.426Z,95155.47
2023-03-07T18:44:21.537Z,95145.22
2023-03-07T18:46:49.406Z,95140.38
2023-03-07T18:49:17.882Z,95142.38
2023-03-07T18:51:48.424Z,95149.25
2023-03-07T18:54:16.597Z,95139.13
2023-03-07T18:56:47.815Z,95146.81
2023-03-07T18:59:16.461Z,95150.50
2023-03-07T19:01:46.412Z,95149.13
2023-03-07T19:04:15.654Z,95152.81
2023-03-07T19:06:47.523Z,95145.22
2023-03-07T19:09:17.048Z,95136.59
2023-03-07T19:11:44.849Z,95143.16
2023-03-07T19:14:14.213Z,95152.25
2023-03-07T19:16:42.269Z,95152.97
2023-03-07T19:19:10.488Z,95160.78
2023-03-07T19:21:38.267Z,95165.72
2023-03-07T19:24:07.858Z,95181.97
2023-03-07T19:26:40.424Z,95191.41
2023-03-07T19:29:10.091Z,95192.47
2023-03-07T19:31:39.294Z,95202.38
2023-03-07T19:34:07.189Z,95197.19
2023-03-07T19:36:37.345Z,95210.31
2023-03-07T19:39:08.842Z,95198.00
2023-03-07T19:41:37.710Z,95204.44
2023-03-07T19:44:11.863Z,95213.44
2023-03-07T19:46:46.491Z,95207.09
2023-03-07T19:49:15.648Z,95207.91
2023-03-07T19:51:43.644Z,95219.41
2023-03-07T19:54:14.071Z,95213.44
2023-03-07T19:56:42.617Z,95212.53
2023-03-07T19:59:10.529Z,95213.09
2023-03-07T20:01:38.385Z,95225.09
2023-03-07T20:04:07.880Z,95222.44
2023-03-07T20:06:36.034Z,95239.13
2023-03-07T20:09:04.234Z,95235.69
2023-03-07T20:11:33.754Z,95238.69
2023-03-07T20:14:04.745Z,95237.75
2023-03-07T20:16:36.138Z,95235.09
2023-03-07T20:19:09.366Z,95243.63
2023-03-07T20:21:38.888Z,95215.38
2023-03-07T20:24:08.655Z,95235.44
2023-03-07T20:26:38.592Z,95238.31
2023-03-07T20:29:08.511Z,95241.53
2023-03-07T20:31:39.159Z,95237.16
2023-03-07T20:34:07.431Z,95235.56
2023-03-07T20:36:36.934Z,95236.72
2023-03-07T20:39:11.835Z,95231.28
2023-03-07T20:41:39.697Z,95234.88
2023-03-07T20:44:09.302Z,95237.84
2023-03-07T20:46:39.273Z,95240.16
2023-03-07T20:49:07.271Z,95249.13
2023-03-07T20:51:37.015Z,95244.88
2023-03-07T20:54:11.870Z,95240.84
2023-03-07T20:56:40.842Z,95238.44
2023-03-07T20:59:12.868Z,95249.59
2023-03-07T21:01:44.138Z,95252.25
2023-03-07T21:04:15.167Z,95242.13
2023-03-07T21:06:44.528Z,95243.97
2023-03-07T21:09:17.837Z,95237.63
2023-03-07T21:11:46.976Z,95253.78
2023-03-07T21:14:15.583Z,95252.84
2023-03-07T21:16:44.133Z,95257.13
2023-03-07T21:19:12.255Z,95261.25
2023-03-07T21:21:40.626Z,95267.38
2023-03-07T21:24:09.038Z,95257.00
2023-03-07T21:26:38.341Z,95261.25
2023-03-07T21:29:10.396Z,95261.94
2023-03-07T21:31:38.791Z,95257.34
2023-03-07T21:34:08.889Z,95264.69
2023-03-07T21:36:40.921Z,95273.81
2023-03-07T21:39:09.947Z,95273.34
2023-03-07T21:41:39.397Z,95275.06
2023-03-07T21:44:07.335Z,95272.19
2023-03-07T21:46:35.365Z,95276.44
2023-03-07T21:49:03.187Z,95287.63
2023-03-07T21:51:30.976Z,95282.56
2023-03-07T21:53:58.874Z,95295.69
2023-03-07T21:56:27.033Z,95279.41
2023-03-07T21:58:56.172Z,95299.25
2023-03-07T22:01:25.878Z,95308.69
2023-03-07T22:03:54.278Z,95307.44
2023-03-07T22:06:22.997Z,95315.63
2023-03-07T22:08:51.069Z,95308.91
2023-03-07T22:11:18.873Z,95301.41
2023-03-07T22:13:47.115Z,95295.31
2023-03-07T22:16:20.464Z,95303.88
2023-03-07T22:18:52.785Z,95304.22
2023-03-07T22:21:21.205Z,95303.88
2023-03-07T22:23:48.953Z,95306.22
2023-03-07T22:26:16.794Z,95303.81
2023-03-07T22:28:44.594Z,95314.53
2023-03-07T22:31:13.451Z,95308.22
2023-03-07T22:33:42.899Z,95304.56
2023-03-07T22:36:14.239Z,95310.09
2023-03-07T22:38:42.794Z,95317.69
2023-03-07T22:41:13.748Z,95310.66
2023-03-07T22:43:41.780Z,95317.34
2023-03-07T22:46:10.584Z,95317.91
2023-03-07T22:48:38.582Z,95308.88
2023-03-07T22:51:12.898Z,95309.72
2023-03-07T22:53:40.616Z,95309.38
2023-03-07T22:56:15.903Z,95312.13
2023-03-07T22:58:43.691Z,95313.53
2023-03-07T23:01:13.848Z,95313.31
2023-03-07T23:03:41.741Z,95308.44
2023-03-07T23:06:10.888Z,95312.75
2023-03-07T23:08:38.607Z,95300.28
2023-03-07T23:11:08.904Z,95315.72
2023-03-07T23:13:36.754Z,95315.13
2023-03-07T23:16:08.159Z,95310.78
2023-03-07T23:18:36.148Z,95293.38
2023-03-07T23:21:04.558Z,95308.25
2023-03-07T23:23:33.841Z,95304.22
2023-03-07T23:26:01.849Z,95300.63
2023-03-07T23:28:29.706Z,95310.75
2023-03-07T23:30:57.651Z,95288.03
2023-03-07T23:33:25.571Z,95309.53
2023-03-07T23:35:53.689Z,95295.59
2023-03-07T23:38:21.773Z,95302.28
2023-03-07T23:40:50.925Z,95295.13
2023-03-07T23:43:18.602Z,95292.09
2023-03-07T23:45:46.417Z,95301.19
2023-03-07T23:48:14.438Z,95315.69
2023-03-07T23:50:42.178Z,95312.13
2023-03-07T23:53:09.884Z,95309.38
2023-03-07T23:55:41.621Z,95313.41
2023-03-07T23:58:10.749Z,95312.50
